Time;durP1;ratioP1;P1;durP2;ratioP2;P2;SDS_P1;SDS_P2;PMS_P1;PMS_P2;Temp;Humidity;BMP_temperature;BMP_pressure;BME280_temperature;BME280_humidity;BME280_pressure;Samples;Min_cycle;Max_cycle;Signal;HPM_P1;HPM_P2
2023/08/16 00:03:50;;;;;;;21.48;11.85;;;;;;;;;;12876531;23;19996;-72
2023/08/16 00:08:53;;;;;;;21.25;10.60;;;;;;;;;;12854082;23;19996;-72
2023/08/16 00:13:53;;;;;;;18.33;12.00;;;;;;;;;;12864408;23;20052;-72
2023/08/16 00:18:53;;;;;;;17.67;11.70;;;;;;;;;;12854011;23;20288;-72
2023/08/16 00:23:53;;;;;;;25.25;13.27;;;;;;;;;;12876170;23;20059;-72
2023/08/16 00:28:55;;;;;;;19.77;13.25;;;;;;;;;;12877758;23;19992;-72
2023/08/16 00:33:55;;;;;;;20.17;13.98;;;;;;;;;;12876637;23;20221;-72
2023/08/16 00:38:55;;;;;;;19.10;14.00;;;;;;;;;;12877493;23;19988;-72
2023/08/16 00:43:56;;;;;;;24.30;14.25;;;;;;;;;;12876562;23;20229;-72
2023/08/16 00:48:56;;;;;;;22.87;15.00;;;;;;;;;;12876429;23;20259;-72
2023/08/16 00:53:57;;;;;;;19.70;14.65;;;;;;;;;;12879234;23;20186;-72
2023/08/16 00:58:57;;;;;;;22.23;13.43;;;;;;;;;;12881061;23;20182;-72
2023/08/16 01:03:58;;;;;;;29.63;16.67;;;;;;;;;;12880321;23;20298;-72
2023/08/16 01:08:58;;;;;;;21.35;15.02;;;;;;;;;;12880166;23;20486;-72
2023/08/16 01:14:02;;;;;;;22.83;15.40;;;;;;;;;;12879288;23;20218;-72
2023/08/16 01:19:09;;;;;;;26.60;17.15;;;;;;;;;;12876589;23;20421;-71
2023/08/16 01:24:16;;;;;;;24.48;16.77;;;;;;;;;;12859102;23;20310;-73
2023/08/16 01:29:17;;;;;;;27.45;17.15;;;;;;;;;;12879696;23;19997;-71
2023/08/16 01:34:17;;;;;;;27.30;17.23;;;;;;;;;;12879182;23;20036;-71
2023/08/16 01:39:18;;;;;;;23.65;16.90;;;;;;;;;;12879637;23;20008;-71
2023/08/16 01:44:20;;;;;;;28.35;16.45;;;;;;;;;;12879069;23;20004;-71
2023/08/16 01:49:21;;;;;;;26.27;16.30;;;;;;;;;;12879005;23;20019;-72
2023/08/16 01:54:23;;;;;;;21.95;14.75;;;;;;;;;;12880452;23;19999;-71
2023/08/16 01:59:23;;;;;;;20.67;14.15;;;;;;;;;;12864081;23;20266;-72
2023/08/16 02:04:23;;;;;;;18.23;14.25;;;;;;;;;;12877684;23;20113;-70
2023/08/16 02:09:24;;;;;;;28.38;15.80;;;;;;;;;;12878877;23;19992;-71
2023/08/16 02:14:24;;;;;;;25.13;15.88;;;;;;;;;;12873538;23;20206;-72
2023/08/16 02:19:25;;;;;;;25.98;15.90;;;;;;;;;;12873971;23;20039;-72
2023/08/16 02:24:25;;;;;;;27.30;16.77;;;;;;;;;;12878418;23;20005;-73
2023/08/16 02:29:25;;;;;;;32.60;18.85;;;;;;;;;;12878601;23;20179;-73
2023/08/16 02:34:25;;;;;;;25.98;17.35;;;;;;;;;;12880167;23;19992;-73
2023/08/16 02:39:26;;;;;;;27.50;17.23;;;;;;;;;;12878474;23;19988;-72
2023/08/16 02:44:26;;;;;;;25.25;15.82;;;;;;;;;;12878517;23;20023;-74
2023/08/16 02:49:26;;;;;;;23.83;16.40;;;;;;;;;;12878019;23;20001;-72
2023/08/16 02:54:27;;;;;;;25.13;16.15;;;;;;;;;;12855144;23;20305;-72
2023/08/16 02:59:27;;;;;;;23.25;15.93;;;;;;;;;;12877769;23;19992;-71
2023/08/16 03:04:27;;;;;;;26.30;16.65;;;;;;;;;;12877476;23;20004;-72
2023/08/16 03:09:27;;;;;;;27.05;15.93;;;;;;;;;;12877479;23;20266;-72
2023/08/16 03:14:28;;;;;;;33.83;16.27;;;;;;;;;;12877553;23;19996;-72
2023/08/16 03:19:28;;;;;;;23.55;16.40;;;;;;;;;;12871837;23;20195;-72
2023/08/16 03:24:28;;;;;;;25.88;16.15;;;;;;;;;;12876989;23;20171;-71
2023/08/16 03:29:29;;;;;;;28.23;16.80;;;;;;;;;;12877357;23;20198;-72
2023/08/16 03:34:30;;;;;;;30.50;22.98;;;;;;;;;;12877381;23;19996;-72
2023/08/16 03:39:30;;;;;;;23.58;16.65;;;;;;;;;;12876822;23;20198;-71
2023/08/16 03:44:30;;;;;;;29.58;17.52;;;;;;;;;;12855142;23;20064;-72
2023/08/16 03:49:31;;;;;;;27.08;17.00;;;;;;;;;;12876790;23;20032;-71
2023/08/16 03:54:31;;;;;;;31.95;18.67;;;;;;;;;;12876713;23;19998;-71
2023/08/16 03:59:31;;;;;;;30.23;19.00;;;;;;;;;;12876366;23;20306;-72
2023/08/16 04:04:31;;;;;;;27.65;17.67;;;;;;;;;;12876457;23;20062;-71
2023/08/16 04:09:32;;;;;;;27.70;17.37;;;;;;;;;;12876184;23;20267;-72
2023/08/16 04:14:32;;;;;;;28.05;18.63;;;;;;;;;;12875760;23;20283;-72
2023/08/16 04:19:32;;;;;;;28.00;16.80;;;;;;;;;;12870757;23;20059;-72
2023/08/16 04:24:33;;;;;;;41.40;17.27;;;;;;;;;;12854454;23;20162;-73
2023/08/16 04:29:33;;;;;;;31.17;17.40;;;;;;;;;;12879942;23;20062;-72
2023/08/16 04:34:33;;;;;;;26.05;16.27;;;;;;;;;;12877947;23;20011;-71
2023/08/16 04:39:34;;;;;;;28.38;17.38;;;;;;;;;;12865005;23;20214;-73
2023/08/16 04:44:34;;;;;;;28.10;16.30;;;;;;;;;;12864458;23;20008;-74
2023/08/16 04:49:34;;;;;;;23.77;16.25;;;;;;;;;;12840683;23;20316;-69
2023/08/16 04:54:34;;;;;;;32.95;16.73;;;;;;;;;;12864398;23;20065;-70
2023/08/16 04:59:35;;;;;;;27.07;16.00;;;;;;;;;;12839507;23;20377;-71
2023/08/16 05:04:35;;;;;;;24.13;14.57;;;;;;;;;;12859520;23;20005;-70
2023/08/16 05:09:36;;;;;;;30.20;16.17;;;;;;;;;;12863113;23;20182;-71
2023/08/16 05:14:36;;;;;;;24.70;14.32;;;;;;;;;;12839907;23;20031;-73
2023/08/16 05:19:36;;;;;;;26.17;12.82;;;;;;;;;;12838417;23;20060;-71
2023/08/16 05:24:36;;;;;;;25.60;13.65;;;;;;;;;;12840141;23;20004;-71
2023/08/16 05:29:37;;;;;;;21.42;12.48;;;;;;;;;;12861224;23;20190;-71
2023/08/16 05:34:37;;;;;;;25.87;13.53;;;;;;;;;;12861799;23;20220;-71
2023/08/16 05:39:38;;;;;;;16.00;11.25;;;;;;;;;;12861194;23;20473;-71
2023/08/16 05:44:38;;;;;;;19.65;10.95;;;;;;;;;;12838924;23;20004;-71
2023/08/16 05:49:38;;;;;;;17.98;12.30;;;;;;;;;;12859821;23;19997;-71
2023/08/16 05:54:38;;;;;;;22.90;15.15;;;;;;;;;;12861419;23;20190;-71
2023/08/16 05:59:40;;;;;;;24.65;12.15;;;;;;;;;;12836619;23;20027;-71
2023/08/16 06:04:40;;;;;;;21.98;11.75;;;;;;;;;;12859864;23;20010;-71
2023/08/16 06:09:40;;;;;;;25.63;11.57;;;;;;;;;;12836684;23;20182;-71
2023/08/16 06:14:40;;;;;;;20.95;12.40;;;;;;;;;;12861091;23;19996;-71
2023/08/16 06:19:41;;;;;;;16.38;11.57;;;;;;;;;;12853889;23;20175;-71
2023/08/16 06:24:41;;;;;;;19.33;11.60;;;;;;;;;;12859191;23;20143;-71
2023/08/16 06:29:41;;;;;;;22.30;12.23;;;;;;;;;;12859029;23;20199;-71
2023/08/16 06:34:42;;;;;;;18.05;9.40;;;;;;;;;;12859219;23;20242;-71
2023/08/16 06:39:42;;;;;;;18.07;8.83;;;;;;;;;;12859086;23;20380;-71
2023/08/16 06:44:42;;;;;;;18.10;10.73;;;;;;;;;;12859742;23;20005;-71
2023/08/16 06:49:43;;;;;;;18.95;10.95;;;;;;;;;;12836257;23;20000;-70
2023/08/16 06:54:43;;;;;;;23.50;9.13;;;;;;;;;;12859034;23;20056;-70
2023/08/16 06:59:44;;;;;;;14.17;7.87;;;;;;;;;;12858670;23;20024;-72
2023/08/16 07:04:45;;;;;;;10.40;7.30;;;;;;;;;;12835468;23;20264;-70
2023/08/16 07:09:45;;;;;;;11.20;7.25;;;;;;;;;;12858525;23;19988;-71
2023/08/16 07:14:45;;;;;;;10.88;6.35;;;;;;;;;;12856717;23;20168;-70
2023/08/16 07:19:50;;;;;;;16.30;6.97;;;;;;;;;;12852933;23;20040;-71
2023/08/16 07:24:51;;;;;;;11.25;6.10;;;;;;;;;;12857687;23;20253;-71
2023/08/16 07:29:51;;;;;;;12.10;6.03;;;;;;;;;;12864578;23;19985;-71
2023/08/16 07:34:51;;;;;;;11.40;5.80;;;;;;;;;;12865553;23;20230;-71
2023/08/16 07:39:51;;;;;;;9.13;4.80;;;;;;;;;;12864167;23;19997;-71
2023/08/16 07:44:52;;;;;;;8.20;4.28;;;;;;;;;;12864111;23;20027;-72
2023/08/16 07:49:52;;;;;;;5.43;4.70;;;;;;;;;;12864051;23;19996;-71
2023/08/16 07:54:52;;;;;;;10.90;4.88;;;;;;;;;;12864269;23;20012;-72
2023/08/16 07:59:52;;;;;;;7.00;3.90;;;;;;;;;;12865045;23;20318;-71
2023/08/16 08:04:54;;;;;;;13.70;4.50;;;;;;;;;;12863266;23;20304;-72
2023/08/16 08:09:57;;;;;;;7.90;4.75;;;;;;;;;;12865062;23;20259;-71
2023/08/16 08:14:58;;;;;;;5.75;3.65;;;;;;;;;;12865250;23;20000;-72
2023/08/16 08:19:58;;;;;;;8.45;4.22;;;;;;;;;;12841634;23;20310;-72
2023/08/16 08:24:58;;;;;;;7.90;4.70;;;;;;;;;;12864359;23;20005;-71
2023/08/16 08:29:58;;;;;;;7.60;4.60;;;;;;;;;;12864119;23;20305;-72
2023/08/16 08:34:59;;;;;;;13.50;4.83;;;;;;;;;;12863811;23;20044;-72
2023/08/16 08:39:59;;;;;;;9.27;3.83;;;;;;;;;;12865943;23;20202;-72
2023/08/16 08:45:01;;;;;;;8.65;4.25;;;;;;;;;;12865668;23;20005;-72
2023/08/16 08:50:02;;;;;;;9.77;4.72;;;;;;;;;;12863499;23;19996;-72
2023/08/16 08:55:02;;;;;;;9.73;4.47;;;;;;;;;;12864887;23;20413;-72
2023/08/16 09:00:04;;;;;;;8.82;4.93;;;;;;;;;;12863775;23;20043;-71
2023/08/16 09:05:07;;;;;;;11.60;5.30;;;;;;;;;;12863122;23;19996;-72
2023/08/16 09:10:09;;;;;;;7.53;5.57;;;;;;;;;;12863562;23;20040;-72
2023/08/16 09:15:09;;;;;;;14.57;5.78;;;;;;;;;;12843874;23;20263;-72
2023/08/16 09:20:11;;;;;;;10.20;5.73;;;;;;;;;;12859579;23;20234;-72
2023/08/16 09:25:11;;;;;;;14.80;5.90;;;;;;;;;;12867141;23;20013;-71
2023/08/16 09:30:12;;;;;;;8.23;5.88;;;;;;;;;;12866665;23;20003;-72
2023/08/16 09:35:13;;;;;;;10.38;5.32;;;;;;;;;;12844577;23;20004;-71
2023/08/16 09:40:15;;;;;;;7.83;5.60;;;;;;;;;;12867781;23;20043;-71
2023/08/16 09:45:15;;;;;;;8.93;6.18;;;;;;;;;;12866431;23;20004;-71
2023/08/16 09:50:21;;;;;;;13.52;5.85;;;;;;;;;;12868854;23;20003;-71
2023/08/16 09:55:24;;;;;;;11.63;4.93;;;;;;;;;;12866085;23;20180;-71
2023/08/16 10:00:26;;;;;;;8.70;4.63;;;;;;;;;;12867000;23;20001;-71
2023/08/16 10:05:26;;;;;;;10.88;4.55;;;;;;;;;;12843636;23;20025;-72
2023/08/16 10:10:27;;;;;;;10.85;4.30;;;;;;;;;;12866001;23;19997;-71
2023/08/16 10:15:30;;;;;;;8.02;4.32;;;;;;;;;;12865481;23;20012;-72
2023/08/16 10:20:35;;;;;;;13.85;4.18;;;;;;;;;;12856904;23;20321;-72
2023/08/16 10:25:39;;;;;;;6.25;3.67;;;;;;;;;;12864654;23;20243;-71
2023/08/16 10:30:40;;;;;;;7.37;3.33;;;;;;;;;;12865651;23;20308;-71
2023/08/16 10:35:41;;;;;;;10.65;3.85;;;;;;;;;;12866854;23;20076;-71
2023/08/16 10:40:42;;;;;;;6.45;3.17;;;;;;;;;;12865223;23;20001;-70
2023/08/16 10:45:44;;;;;;;7.07;3.90;;;;;;;;;;12864520;23;20008;-71
2023/08/16 10:50:56;;;;;;;6.80;3.80;;;;;;;;;;12866459;23;19992;-71
2023/08/16 10:55:56;;;;;;;8.75;3.67;;;;;;;;;;12865112;23;20095;-71
2023/08/16 11:00:57;;;;;;;21.08;3.55;;;;;;;;;;12863313;23;20221;-71
2023/08/16 11:05:59;;;;;;;8.23;3.85;;;;;;;;;;12865029;23;19997;-72
2023/08/16 11:11:01;;;;;;;8.38;3.97;;;;;;;;;;12864487;23;20354;-72
2023/08/16 11:16:02;;;;;;;5.97;3.97;;;;;;;;;;12843152;23;20004;-72
2023/08/16 11:21:03;;;;;;;6.30;5.07;;;;;;;;;;12853758;23;20032;-72
2023/08/16 11:26:04;;;;;;;6.75;4.82;;;;;;;;;;12864684;23;20251;-72
2023/08/16 11:31:05;;;;;;;8.82;5.82;;;;;;;;;;12865141;23;20012;-72
2023/08/16 11:36:15;;;;;;;9.98;6.28;;;;;;;;;;12863796;23;20351;-72
2023/08/16 11:41:18;;;;;;;8.30;4.93;;;;;;;;;;12864625;23;20211;-72
2023/08/16 11:46:18;;;;;;;9.63;6.05;;;;;;;;;;12841218;23;20027;-71
2023/08/16 11:51:18;;;;;;;12.23;6.38;;;;;;;;;;12863986;23;19995;-71
2023/08/16 11:56:26;;;;;;;13.82;6.97;;;;;;;;;;12864471;23;20001;-71
2023/08/16 12:01:27;;;;;;;14.27;6.30;;;;;;;;;;12863879;23;19993;-71
2023/08/16 12:06:27;;;;;;;9.00;6.22;;;;;;;;;;12864035;23;20210;-71
2023/08/16 12:11:29;;;;;;;14.67;6.33;;;;;;;;;;12859538;23;20003;-70
2023/08/16 12:16:29;;;;;;;12.30;7.18;;;;;;;;;;12864826;23;20007;-70
2023/08/16 12:21:29;;;;;;;16.73;6.67;;;;;;;;;;12841288;23;20283;-70
2023/08/16 12:26:29;;;;;;;12.25;6.90;;;;;;;;;;12864219;23;20325;-71
2023/08/16 12:31:30;;;;;;;10.30;7.75;;;;;;;;;;12863873;23;19992;-71
2023/08/16 12:36:30;;;;;;;13.73;7.07;;;;;;;;;;12862561;23;20214;-70
2023/08/16 12:41:30;;;;;;;11.73;7.47;;;;;;;;;;12864035;23;19997;-70
2023/08/16 12:46:31;;;;;;;10.32;7.45;;;;;;;;;;12863927;23;20005;-70
2023/08/16 12:51:36;;;;;;;10.63;7.23;;;;;;;;;;12868222;23;20012;-71
2023/08/16 12:56:36;;;;;;;10.80;7.20;;;;;;;;;;12845726;23;20339;-70
2023/08/16 13:01:37;;;;;;;11.95;6.68;;;;;;;;;;12868730;23;20001;-71
2023/08/16 13:06:37;;;;;;;10.05;6.95;;;;;;;;;;12867074;23;20004;-72
2023/08/16 13:11:37;;;;;;;11.80;7.43;;;;;;;;;;12868367;23;20333;-72
2023/08/16 13:16:38;;;;;;;12.13;6.57;;;;;;;;;;12866814;23;19989;-71
2023/08/16 13:21:39;;;;;;;12.88;6.93;;;;;;;;;;12851737;23;20068;-71
2023/08/16 13:26:39;;;;;;;11.55;6.40;;;;;;;;;;12866899;23;20019;-71
2023/08/16 13:31:40;;;;;;;7.05;5.10;;;;;;;;;;12844018;23;19995;-71
2023/08/16 13:36:40;;;;;;;11.60;6.72;;;;;;;;;;12866172;23;20189;-71
2023/08/16 13:41:40;;;;;;;14.07;6.80;;;;;;;;;;12866662;23;20044;-71
2023/08/16 13:46:40;;;;;;;13.15;7.30;;;;;;;;;;12867192;23;20245;-71
2023/08/16 13:51:41;;;;;;;11.75;6.82;;;;;;;;;;12865914;23;20489;-71
2023/08/16 13:56:41;;;;;;;12.07;7.05;;;;;;;;;;12866076;23;20020;-71
2023/08/16 14:01:41;;;;;;;13.38;6.63;;;;;;;;;;12866133;23;20068;-71
2023/08/16 14:06:42;;;;;;;15.33;7.13;;;;;;;;;;12844239;23;20214;-71
2023/08/16 14:11:45;;;;;;;13.60;6.35;;;;;;;;;;12868085;23;20336;-71
2023/08/16 14:16:45;;;;;;;11.35;6.53;;;;;;;;;;12843210;23;20008;-71
2023/08/16 14:21:49;;;;;;;13.90;7.57;;;;;;;;;;12852042;23;20008;-72
2023/08/16 14:26:55;;;;;;;13.95;7.50;;;;;;;;;;12843935;23;20043;-72
2023/08/16 14:31:58;;;;;;;10.48;6.63;;;;;;;;;;12843423;23;20020;-71
2023/08/16 14:36:58;;;;;;;12.35;7.35;;;;;;;;;;12843813;23;20119;-71
2023/08/16 14:41:59;;;;;;;10.20;6.97;;;;;;;;;;12843360;23;20000;-72
2023/08/16 14:47:00;;;;;;;9.98;6.82;;;;;;;;;;12865976;23;19999;-71
2023/08/16 14:52:09;;;;;;;13.02;7.32;;;;;;;;;;12844892;23;20262;-71
2023/08/16 14:57:13;;;;;;;16.65;7.55;;;;;;;;;;12843883;23;19996;-71
2023/08/16 15:02:16;;;;;;;12.45;7.25;;;;;;;;;;12843655;23;20009;-71
2023/08/16 15:07:21;;;;;;;10.27;7.38;;;;;;;;;;12843836;23;20204;-70
2023/08/16 15:12:21;;;;;;;13.27;7.10;;;;;;;;;;12864801;23;20231;-72
2023/08/16 15:17:22;;;;;;;17.35;8.27;;;;;;;;;;12865469;23;20000;-72
2023/08/16 15:22:25;;;;;;;12.43;7.20;;;;;;;;;;12847963;23;20040;-72
2023/08/16 15:27:25;;;;;;;12.98;7.70;;;;;;;;;;12843271;23;20011;-71
2023/08/16 15:32:26;;;;;;;12.07;7.53;;;;;;;;;;12865051;23;19996;-71
2023/08/16 15:37:26;;;;;;;13.82;7.95;;;;;;;;;;12841909;23;20000;-71
2023/08/16 15:42:26;;;;;;;17.10;8.18;;;;;;;;;;12854041;23;20362;-71
2023/08/16 15:47:26;;;;;;;13.68;8.88;;;;;;;;;;12864596;23;20000;-71
2023/08/16 15:52:27;;;;;;;13.20;7.80;;;;;;;;;;12864505;23;20220;-71
2023/08/16 15:57:27;;;;;;;13.60;7.95;;;;;;;;;;12865258;23;20223;-70
2023/08/16 16:02:27;;;;;;;11.88;7.95;;;;;;;;;;12864283;23;20001;-71
2023/08/16 16:07:27;;;;;;;14.23;8.68;;;;;;;;;;12865714;23;19993;-72
2023/08/16 16:12:28;;;;;;;19.92;8.45;;;;;;;;;;12863978;23;19992;-72
2023/08/16 16:17:28;;;;;;;14.00;8.52;;;;;;;;;;12864062;23;20001;-71
2023/08/16 16:22:28;;;;;;;13.03;7.97;;;;;;;;;;12864687;23;20385;-71
2023/08/16 16:27:28;;;;;;;12.82;8.18;;;;;;;;;;12867772;23;20008;-71
2023/08/16 16:32:29;;;;;;;17.08;8.40;;;;;;;;;;12869527;23;19997;-71
2023/08/16 16:37:29;;;;;;;13.60;8.90;;;;;;;;;;12869212;23;19993;-71
2023/08/16 16:42:30;;;;;;;12.15;8.15;;;;;;;;;;12859279;23;20266;-71
2023/08/16 16:47:30;;;;;;;18.75;8.98;;;;;;;;;;12867593;23;19984;-70
2023/08/16 16:52:30;;;;;;;11.23;8.77;;;;;;;;;;12868079;23;20068;-71
2023/08/16 16:57:32;;;;;;;18.75;9.25;;;;;;;;;;12868708;23;19997;-71
2023/08/16 17:02:33;;;;;;;10.55;7.90;;;;;;;;;;12866825;23;19997;-71
2023/08/16 17:07:33;;;;;;;12.73;8.80;;;;;;;;;;12867548;23;20023;-71
2023/08/16 17:12:33;;;;;;;19.70;9.37;;;;;;;;;;12865763;23;19999;-71
2023/08/16 17:17:33;;;;;;;14.65;9.13;;;;;;;;;;12868297;23;19997;-70
2023/08/16 17:22:36;;;;;;;18.85;9.05;;;;;;;;;;12868098;23;20295;-71
2023/08/16 17:27:37;;;;;;;16.27;8.52;;;;;;;;;;12867921;23;20308;-70
2023/08/16 17:32:37;;;;;;;14.83;9.00;;;;;;;;;;12867286;23;19995;-72
2023/08/16 17:37:37;;;;;;;19.63;9.30;;;;;;;;;;12845788;23;20598;-70
2023/08/16 17:42:38;;;;;;;21.48;9.57;;;;;;;;;;12858084;23;20004;-71
2023/08/16 17:47:40;;;;;;;17.42;9.35;;;;;;;;;;12868380;23;19988;-71
2023/08/16 17:52:40;;;;;;;15.60;9.38;;;;;;;;;;12868798;23;20009;-72
2023/08/16 17:57:40;;;;;;;17.03;9.50;;;;;;;;;;12867912;23;20323;-72
2023/08/16 18:02:40;;;;;;;10.93;9.20;;;;;;;;;;12844899;23;20032;-70
2023/08/16 18:07:41;;;;;;;17.15;8.82;;;;;;;;;;12867946;23;19989;-74
2023/08/16 18:12:41;;;;;;;17.20;8.97;;;;;;;;;;12867668;23;19996;-76
2023/08/16 18:17:41;;;;;;;13.10;8.75;;;;;;;;;;12867242;23;20231;-76
2023/08/16 18:22:41;;;;;;;15.00;9.77;;;;;;;;;;12867592;23;20020;-69
2023/08/16 18:27:42;;;;;;;17.70;8.98;;;;;;;;;;12867374;23;20020;-75
2023/08/16 18:32:42;;;;;;;17.75;9.88;;;;;;;;;;12867092;23;20563;-73
2023/08/16 18:37:42;;;;;;;16.20;9.53;;;;;;;;;;12866230;23;20056;-74
2023/08/16 18:42:43;;;;;;;19.02;11.02;;;;;;;;;;12856447;23;19996;-73
2023/08/16 18:47:43;;;;;;;18.13;10.27;;;;;;;;;;12866414;23;20059;-73
2023/08/16 18:52:43;;;;;;;10.48;7.82;;;;;;;;;;12866437;23;20310;-73
2023/08/16 18:57:43;;;;;;;14.30;7.88;;;;;;;;;;12868629;23;20054;-72
2023/08/16 19:02:44;;;;;;;12.23;9.38;;;;;;;;;;12866546;23;20039;-71
2023/08/16 19:07:44;;;;;;;16.15;8.48;;;;;;;;;;12866568;23;20004;-73
2023/08/16 19:12:44;;;;;;;14.50;9.30;;;;;;;;;;12867033;23;20000;-73
2023/08/16 19:17:44;;;;;;;20.90;8.93;;;;;;;;;;12866459;23;20433;-75
2023/08/16 19:22:45;;;;;;;13.98;10.50;;;;;;;;;;12866266;23;20012;-80
2023/08/16 19:27:45;;;;;;;21.50;13.50;;;;;;;;;;12844023;23;19997;-72
2023/08/16 19:32:45;;;;;;;17.33;10.33;;;;;;;;;;12866263;23;19999;-74
2023/08/16 19:37:46;;;;;;;21.57;9.37;;;;;;;;;;12865700;23;20004;-74
2023/08/16 19:42:46;;;;;;;13.77;9.52;;;;;;;;;;12856093;23;20298;-73
2023/08/16 19:47:46;;;;;;;17.48;10.73;;;;;;;;;;12865774;23;20020;-74
2023/08/16 19:52:53;;;;;;;18.45;9.80;;;;;;;;;;12843173;23;20015;-77
2023/08/16 19:57:54;;;;;;;13.73;9.48;;;;;;;;;;12865722;23;20008;-76
2023/08/16 20:02:54;;;;;;;16.70;10.50;;;;;;;;;;12865427;23;20345;-77
2023/08/16 20:07:54;;;;;;;19.97;10.27;;;;;;;;;;12865083;23;20282;-73
2023/08/16 20:12:54;;;;;;;21.40;14.60;;;;;;;;;;12865624;23;20000;-78
2023/08/16 20:17:55;;;;;;;29.75;18.33;;;;;;;;;;12866436;23;20028;-77
2023/08/16 20:22:55;;;;;;;42.37;39.13;;;;;;;;;;12864726;23;20017;-74
2023/08/16 20:27:55;;;;;;;24.92;22.75;;;;;;;;;;12865495;23;19997;-75
2023/08/16 20:32:56;;;;;;;71.20;66.28;;;;;;;;;;12865572;23;20008;-79
2023/08/16 20:37:56;;;;;;;90.10;84.45;;;;;;;;;;12865934;23;20223;-81
2023/08/16 20:42:56;;;;;;;135.63;127.07;;;;;;;;;;12853585;23;20000;-74
2023/08/16 20:47:56;;;;;;;464.77;426.88;;;;;;;;;;12865081;23;19984;-74
2023/08/16 20:52:57;;;;;;;92.72;85.72;;;;;;;;;;12865221;23;20544;-77
2023/08/16 20:57:57;;;;;;;14.47;10.47;;;;;;;;;;12863970;23;20004;-76
2023/08/16 21:02:57;;;;;;;376.95;347.48;;;;;;;;;;12864276;23;20012;-77
2023/08/16 21:07:57;;;;;;;553.35;506.70;;;;;;;;;;12866074;23;19989;-79
2023/08/16 21:12:58;;;;;;;27.08;9.95;;;;;;;;;;12868193;23;20031;-74
2023/08/16 21:17:58;;;;;;;16.98;12.02;;;;;;;;;;12868005;23;20008;-73
2023/08/16 21:22:58;;;;;;;21.58;10.93;;;;;;;;;;12867813;23;20005;-72
2023/08/16 21:27:59;;;;;;;18.60;14.18;;;;;;;;;;12868846;23;20356;-71
2023/08/16 21:32:59;;;;;;;826.57;754.63;;;;;;;;;;12844229;23;20008;-74
2023/08/16 21:37:59;;;;;;;124.65;116.32;;;;;;;;;;12865167;23;20000;-73
2023/08/16 21:42:59;;;;;;;130.00;121.77;;;;;;;;;;12853579;23;20005;-74
2023/08/16 21:48:00;;;;;;;161.55;151.30;;;;;;;;;;12865840;23;20238;-71
2023/08/16 21:53:01;;;;;;;200.15;186.63;;;;;;;;;;12867248;23;19993;-74
2023/08/16 21:58:01;;;;;;;669.17;613.88;;;;;;;;;;12867103;23;19988;-72
2023/08/16 22:03:02;;;;;;;256.85;235.27;;;;;;;;;;12846287;23;20016;-72
2023/08/16 22:08:02;;;;;;;583.47;531.95;;;;;;;;;;12867337;23;19997;-75
2023/08/16 22:13:03;;;;;;;16.53;9.17;;;;;;;;;;12844342;23;20004;-73
2023/08/16 22:18:03;;;;;;;18.50;9.03;;;;;;;;;;12867495;23;20243;-72
2023/08/16 22:23:04;;;;;;;14.70;9.00;;;;;;;;;;12867394;23;20320;-72
2023/08/16 22:28:04;;;;;;;40.33;37.13;;;;;;;;;;12870178;23;19984;-75
2023/08/16 22:33:04;;;;;;;14.57;8.70;;;;;;;;;;12878348;23;19991;-75
2023/08/16 22:38:05;;;;;;;11.23;9.45;;;;;;;;;;12855606;23;20302;-75
2023/08/16 22:43:05;;;;;;;12.40;8.50;;;;;;;;;;12867402;23;20258;-73
2023/08/16 22:48:05;;;;;;;13.32;9.27;;;;;;;;;;12878207;23;20178;-73
2023/08/16 22:53:06;;;;;;;1004.57;914.73;;;;;;;;;;12875938;23;20005;-73
2023/08/16 22:58:06;;;;;;;1120.50;999.90;;;;;;;;;;12877825;23;20031;-73
2023/08/16 23:03:08;;;;;;;15.52;8.00;;;;;;;;;;12877928;23;20313;-73
2023/08/16 23:08:08;;;;;;;13.50;7.32;;;;;;;;;;12877560;23;20425;-73
2023/08/16 23:13:08;;;;;;;14.93;8.07;;;;;;;;;;12877393;23;20022;-73
2023/08/16 23:18:09;;;;;;;15.57;10.10;;;;;;;;;;12877780;23;19999;-73
2023/08/16 23:23:09;;;;;;;16.33;11.73;;;;;;;;;;12877258;23;20009;-73
2023/08/16 23:28:09;;;;;;;35.15;32.38;;;;;;;;;;12877350;23;20051;-73
2023/08/16 23:33:10;;;;;;;11.47;7.93;;;;;;;;;;12877276;23;20040;-73
2023/08/16 23:38:10;;;;;;;13.23;8.57;;;;;;;;;;12877186;23;20051;-73
2023/08/16 23:43:11;;;;;;;14.75;11.02;;;;;;;;;;12865086;23;20054;-73
2023/08/16 23:48:12;;;;;;;21.33;12.95;;;;;;;;;;12856168;23;20032;-73
2023/08/16 23:53:12;;;;;;;16.50;10.40;;;;;;;;;;12876657;23;20539;-73
2023/08/16 23:58:12;;;;;;;14.83;9.60;;;;;;;;;;12876519;23;20051;-73
